San Gabriel, California
Current Conditions -  °F | °C
As of 1:45 PM on Wednesday 17 Dec 2014 (Local Time) from KEMT Reporting Station
Broken Clouds Broken Clouds  
Wind Chill: 16°   Ceiling: 7500
Heat Index: 16°   Visibility: 10mi
Dew Point:   Wind: 8mph
Humidity: 63%   Direction: 20°NNE
Pressure: 30.06"   Gusts: NA
Location:  34.1°N, 118.1°W
Report Text: KEMT 172145Z 02007KT 10SM BKN075 16/09 A3006
Loading
Personal Weather Stations






























Interactive Weather Map New forecast layout! Learn more

10-Day Weather Forecast

Advertisements
Track Severe Weather on mobile